createdAt,value
2023-02-19T00:03:41.348Z,10.82
2023-02-19T00:07:52.904Z,10.76
2023-02-19T00:12:04.596Z,10.72
2023-02-19T00:16:17.277Z,10.72
2023-02-19T00:20:28.999Z,10.74
2023-02-19T00:24:40.563Z,10.70
2023-02-19T00:28:53.470Z,10.74
2023-02-19T00:33:05.179Z,10.76
2023-02-19T00:37:17.150Z,10.69
2023-02-19T00:41:29.040Z,10.71
2023-02-19T00:45:40.632Z,10.74
2023-02-19T00:49:52.223Z,10.76
2023-02-19T00:54:05.338Z,10.76
2023-02-19T00:58:16.988Z,10.62
2023-02-19T01:02:28.852Z,10.63
2023-02-19T01:06:41.374Z,10.69
2023-02-19T01:10:53.491Z,10.63
2023-02-19T01:15:05.316Z,10.62
2023-02-19T01:19:17.036Z,10.58
2023-02-19T01:23:28.601Z,10.57
2023-02-19T01:27:40.167Z,10.60
2023-02-19T01:31:51.809Z,10.59
2023-02-19T01:36:04.851Z,10.60
2023-02-19T01:40:17.980Z,10.54
2023-02-19T01:44:29.472Z,10.65
2023-02-19T01:48:41.400Z,10.54
2023-02-19T01:52:53.030Z,10.56
2023-02-19T01:57:09.287Z,10.59
2023-02-19T02:01:20.942Z,10.55
2023-02-19T02:05:44.260Z,10.56
2023-02-19T02:10:15.020Z,10.49
2023-02-19T02:14:31.248Z,10.55
2023-02-19T02:18:45.811Z,10.54
2023-02-19T02:23:07.278Z,10.43
2023-02-19T02:27:35.148Z,10.52
2023-02-19T02:31:57.056Z,10.42
2023-02-19T02:36:22.034Z,10.43
2023-02-19T02:40:34.746Z,10.42
2023-02-19T02:45:05.091Z,10.38
2023-02-19T02:49:23.597Z,10.38
2023-02-19T02:54:02.058Z,10.33
2023-02-19T02:58:15.399Z,10.34
2023-02-19T03:02:31.351Z,10.30
2023-02-19T03:06:47.521Z,10.30
2023-02-19T03:11:31.187Z,10.30
2023-02-19T03:16:09.342Z,10.29
2023-02-19T03:20:23.883Z,10.32
2023-02-19T03:24:59.897Z,10.31
2023-02-19T03:29:26.208Z,10.30
2023-02-19T03:33:50.406Z,10.34
2023-02-19T03:38:18.765Z,10.39
2023-02-19T03:42:39.992Z,10.39
2023-02-19T03:46:56.920Z,10.38
2023-02-19T03:51:32.907Z,10.35
2023-02-19T03:56:06.710Z,10.24
2023-02-19T04:00:38.478Z,10.36
2023-02-19T04:04:56.351Z,10.36
2023-02-19T04:09:12.412Z,10.35
2023-02-19T04:13:39.399Z,10.36
2023-02-19T04:17:57.229Z,10.36
2023-02-19T04:22:10.816Z,10.26
2023-02-19T04:26:22.960Z,10.26
2023-02-19T04:30:34.594Z,10.28
2023-02-19T04:34:46.258Z,10.19
2023-02-19T04:38:57.969Z,10.16
2023-02-19T04:43:09.560Z,10.14
2023-02-19T04:47:21.155Z,10.11
2023-02-19T04:51:32.673Z,10.21
2023-02-19T04:55:44.332Z,10.13
2023-02-19T04:59:55.989Z,10.17
2023-02-19T05:04:07.746Z,10.08
2023-02-19T05:08:19.824Z,10.04
2023-02-19T05:12:31.661Z,10.12
2023-02-19T05:16:43.200Z,10.05
2023-02-19T05:20:54.761Z,10.12
2023-02-19T05:25:06.522Z,10.09
2023-02-19T05:29:18.147Z,10.12
2023-02-19T05:33:29.780Z,10.06
2023-02-19T05:37:41.333Z,10.12
2023-02-19T05:41:52.849Z,10.10
2023-02-19T05:46:05.003Z,10.09
2023-02-19T05:50:16.691Z,10.06
2023-02-19T05:54:29.305Z,10.08
2023-02-19T05:58:40.869Z,10.02
2023-02-19T06:02:53.049Z,10.15
2023-02-19T06:07:04.571Z,10.12
2023-02-19T06:11:17.161Z,10.04
2023-02-19T06:15:29.897Z,10.04
2023-02-19T06:19:41.583Z,10.05
2023-02-19T06:23:54.579Z,9.89
2023-02-19T06:28:59.732Z,10.02
2023-02-19T06:33:11.249Z,9.95
2023-02-19T06:37:22.838Z,9.97
2023-02-19T06:41:34.446Z,9.94
2023-02-19T06:45:46.080Z,9.89
2023-02-19T06:49:57.779Z,10.00
2023-02-19T06:54:09.367Z,9.92
2023-02-19T06:58:20.867Z,9.97
2023-02-19T07:02:32.458Z,9.99
2023-02-19T07:06:44.069Z,10.08
2023-02-19T07:10:57.521Z,10.00
2023-02-19T07:15:10.010Z,10.01
2023-02-19T07:19:21.568Z,9.98
2023-02-19T07:23:33.168Z,9.95
2023-02-19T07:27:44.679Z,10.00
2023-02-19T07:31:56.343Z,9.93
2023-02-19T07:36:08.507Z,9.98
2023-02-19T07:40:20.030Z,10.02
2023-02-19T07:44:31.622Z,10.02
2023-02-19T07:48:44.281Z,10.06
2023-02-19T07:52:55.847Z,10.00
2023-02-19T07:57:07.421Z,9.99
2023-02-19T08:01:40.469Z,10.09
2023-02-19T08:05:53.823Z,10.05
2023-02-19T08:10:24.481Z,10.13
2023-02-19T08:14:36.086Z,10.22
2023-02-19T08:18:48.689Z,10.34
2023-02-19T08:23:00.171Z,10.40
2023-02-19T08:27:11.644Z,10.47
2023-02-19T08:31:23.258Z,10.39
2023-02-19T08:35:36.587Z,10.46
2023-02-19T08:39:48.086Z,10.43
2023-02-19T09:42:23.943Z,10.90
2023-02-19T09:46:50.155Z,10.89
2023-02-19T09:51:02.877Z,10.87
2023-02-19T10:13:31.346Z,11.85
2023-02-19T10:17:42.981Z,11.70
2023-02-19T10:21:56.611Z,11.58
2023-02-19T10:26:08.415Z,11.41
2023-02-19T10:30:24.454Z,11.44
2023-02-19T10:34:36.086Z,11.44
2023-02-19T10:38:48.109Z,11.33
2023-02-19T10:43:04.154Z,11.25
2023-02-19T10:47:19.178Z,11.28
2023-02-19T10:51:39.842Z,11.15
2023-02-19T10:56:12.896Z,11.20
2023-02-19T11:00:27.461Z,11.23
2023-02-19T11:04:39.133Z,11.26
2023-02-19T11:08:54.561Z,11.28
2023-02-19T11:13:12.331Z,11.20
2023-02-19T11:17:30.406Z,11.27
2023-02-19T11:21:42.011Z,11.19
2023-02-19T11:25:56.410Z,11.29
2023-02-19T11:30:30.033Z,11.26
2023-02-19T11:34:41.958Z,11.19
2023-02-19T11:38:54.718Z,11.37
2023-02-19T11:43:30.259Z,11.63
2023-02-19T11:48:12.663Z,11.91
2023-02-19T11:52:38.211Z,11.87
2023-02-19T11:57:02.477Z,11.89
2023-02-19T12:01:29.514Z,11.78
2023-02-19T12:06:09.825Z,11.64
2023-02-19T12:10:46.403Z,11.68
2023-02-19T12:15:23.407Z,11.56
2023-02-19T12:19:47.044Z,11.45
2023-02-19T12:24:20.718Z,11.16
2023-02-19T12:28:38.360Z,11.30
2023-02-19T12:33:04.538Z,11.12
2023-02-19T12:37:38.821Z,11.07
2023-02-19T12:42:03.542Z,11.09
2023-02-19T12:46:37.918Z,11.04
2023-02-19T12:50:56.868Z,11.23
2023-02-19T12:55:30.612Z,11.36
2023-02-19T13:00:07.421Z,11.42
2023-02-19T13:04:36.806Z,11.57
2023-02-19T13:09:06.290Z,11.57
2023-02-19T13:13:30.143Z,11.51
2023-02-19T13:17:47.383Z,11.52
2023-02-19T13:22:52.944Z,11.52
2023-02-19T13:27:04.447Z,11.37
2023-02-19T13:31:31.801Z,11.33
2023-02-19T13:36:00.548Z,11.31
2023-02-19T13:40:26.699Z,11.19
2023-02-19T13:44:40.852Z,11.24
2023-02-19T13:49:23.597Z,11.26
2023-02-19T13:53:42.068Z,11.15
2023-02-19T13:57:53.662Z,11.10
2023-02-19T14:02:09.670Z,11.05
2023-02-19T14:06:21.369Z,10.95
2023-02-19T14:10:51.752Z,10.87
2023-02-19T14:15:25.360Z,10.78
2023-02-19T14:19:42.962Z,10.76
2023-02-19T14:23:58.439Z,10.69
2023-02-19T14:28:09.931Z,10.67
2023-02-19T14:32:21.711Z,10.49
2023-02-19T14:36:45.184Z,10.41
2023-02-19T14:40:57.547Z,10.30
2023-02-19T14:45:09.783Z,10.23
2023-02-19T14:49:30.097Z,10.26
2023-02-19T14:53:44.700Z,10.22
2023-02-19T14:57:59.700Z,10.19
2023-02-19T15:02:21.076Z,10.14
2023-02-19T15:06:35.162Z,10.11
2023-02-19T15:10:47.122Z,10.10
2023-02-19T15:15:02.879Z,10.09
2023-02-19T15:19:17.064Z,10.04
2023-02-19T15:23:30.693Z,9.97
2023-02-19T15:27:42.208Z,10.00
2023-02-19T15:31:56.950Z,10.04
2023-02-19T15:36:09.768Z,10.06
2023-02-19T15:40:26.706Z,10.01
2023-02-19T15:44:46.106Z,9.80
2023-02-19T15:49:15.411Z,9.72
2023-02-19T15:53:30.749Z,9.77
2023-02-19T15:57:47.242Z,9.75
2023-02-19T16:02:00.640Z,9.60
2023-02-19T16:06:14.966Z,9.60
2023-02-19T16:10:26.488Z,9.65
2023-02-19T16:14:37.987Z,9.66
2023-02-19T16:18:51.587Z,9.62
2023-02-19T16:23:14.635Z,9.55
2023-02-19T16:27:36.441Z,9.57
2023-02-19T16:31:54.241Z,9.45
2023-02-19T16:36:26.443Z,9.45
2023-02-19T16:40:54.268Z,9.39
2023-02-19T16:45:07.959Z,9.27
2023-02-19T16:49:20.891Z,9.19
2023-02-19T16:53:33.292Z,9.18
2023-02-19T16:57:44.960Z,9.12
2023-02-19T17:01:56.567Z,9.14
2023-02-19T17:06:08.196Z,9.17
2023-02-19T17:10:23.003Z,9.12
2023-02-19T17:14:34.443Z,9.09
2023-02-19T17:18:45.964Z,9.05
2023-02-19T17:22:57.544Z,8.99
2023-02-19T17:27:13.075Z,9.01
2023-02-19T17:31:24.660Z,8.91
2023-02-19T17:35:36.244Z,8.91
2023-02-19T17:39:49.020Z,8.79
2023-02-19T17:44:00.577Z,8.76
2023-02-19T17:48:13.860Z,8.76
2023-02-19T17:52:25.387Z,8.70
2023-02-19T17:56:37.175Z,8.69
2023-02-19T18:00:48.678Z,8.60
2023-02-19T18:05:00.232Z,8.64
2023-02-19T18:09:15.164Z,8.60
2023-02-19T18:13:26.740Z,8.55
2023-02-19T18:17:38.234Z,8.56
2023-02-19T18:21:49.752Z,8.57
2023-02-19T18:26:01.327Z,8.46
2023-02-19T18:30:16.669Z,8.50
2023-02-19T18:34:28.226Z,8.52
2023-02-19T18:38:39.968Z,8.51
2023-02-19T18:42:51.859Z,8.45
2023-02-19T18:47:03.564Z,8.41
2023-02-19T18:51:15.088Z,8.34
2023-02-19T18:55:26.712Z,8.30
2023-02-19T18:59:40.186Z,8.32
2023-02-19T19:03:51.723Z,8.28
2023-02-19T19:08:03.402Z,8.25
2023-02-19T19:12:16.416Z,8.14
2023-02-19T19:16:29.087Z,8.14
2023-02-19T19:20:40.584Z,8.07
2023-02-19T19:24:52.272Z,8.01
2023-02-19T19:29:04.324Z,7.88
2023-02-19T19:33:17.731Z,7.75
2023-02-19T19:37:29.722Z,7.71
2023-02-19T19:41:41.293Z,7.68
2023-02-19T19:45:52.897Z,7.56
2023-02-19T19:50:04.697Z,7.47
2023-02-19T19:54:16.344Z,7.34
2023-02-19T19:58:28.238Z,7.13
2023-02-19T20:02:40.028Z,7.15
2023-02-19T20:06:53.424Z,7.07
2023-02-19T20:11:05.105Z,6.90
2023-02-19T20:15:21.942Z,6.92
2023-02-19T20:19:33.454Z,6.86
2023-02-19T20:23:45.010Z,6.81
2023-02-19T20:27:56.566Z,6.76
2023-02-19T20:32:08.066Z,6.70
2023-02-19T20:36:20.259Z,6.64
2023-02-19T20:40:32.756Z,6.58
2023-02-19T20:44:44.380Z,6.56
2023-02-19T20:48:56.588Z,6.54
2023-02-19T20:53:08.179Z,6.53
2023-02-19T20:57:19.623Z,6.47
2023-02-19T21:01:31.191Z,6.41
2023-02-19T21:05:42.938Z,6.38
2023-02-19T21:09:54.927Z,6.36
2023-02-19T21:14:06.461Z,6.30
2023-02-19T21:18:19.847Z,6.24
2023-02-19T21:22:31.293Z,6.17
2023-02-19T21:26:44.100Z,6.10
2023-02-19T21:30:55.717Z,6.09
2023-02-19T21:35:07.573Z,6.03
2023-02-19T21:39:20.934Z,6.04
2023-02-19T21:43:32.460Z,5.96
2023-02-19T21:47:43.989Z,5.93
2023-02-19T21:51:55.496Z,5.94
2023-02-19T21:56:07.115Z,5.89
2023-02-19T22:00:18.882Z,5.91
2023-02-19T22:04:30.473Z,5.89
2023-02-19T22:08:42.016Z,5.86
2023-02-19T22:12:53.537Z,5.82
2023-02-19T22:17:05.112Z,5.72
2023-02-19T22:21:17.391Z,5.74
2023-02-19T22:25:28.868Z,5.70
2023-02-19T22:29:40.392Z,5.70
2023-02-19T22:33:53.384Z,5.69
2023-02-19T22:38:04.906Z,5.63
2023-02-19T22:42:16.726Z,5.57
2023-02-19T22:46:30.376Z,5.56
2023-02-19T22:50:41.892Z,5.40
2023-02-19T22:54:56.757Z,5.50
2023-02-19T22:59:08.307Z,5.50
2023-02-19T23:03:19.826Z,5.49
2023-02-19T23:07:31.295Z,5.44
2023-02-19T23:11:42.885Z,5.43
2023-02-19T23:15:54.386Z,5.47
2023-02-19T23:20:06.640Z,5.53
2023-02-19T23:24:18.277Z,5.53
2023-02-19T23:28:30.054Z,5.62
2023-02-19T23:32:41.560Z,5.52
2023-02-19T23:36:54.111Z,5.65
2023-02-19T23:41:10.661Z,5.71
2023-02-19T23:45:23.064Z,5.74
2023-02-19T23:49:34.563Z,5.76
2023-02-19T23:53:46.034Z,5.86
2023-02-19T23:57:57.633Z,5.86
